Time;durP1;ratioP1;P1;durP2;ratioP2;P2;SDS_P1;SDS_P2;PMS_P1;PMS_P2;Temp;Humidity;BMP_temperature;BMP_pressure;BME280_temperature;BME280_humidity;BME280_pressure;Samples;Min_cycle;Max_cycle;Signal;HPM_P1;HPM_P2
2021/04/09 00:00:00;;;;;;;2.22;0.93;;;;;;;18.44;49.02;100779.47;488557;28;1171;-67
2021/04/09 00:00:15;;;;;;;3.07;0.90;;;;;;;18.48;49.51;100788.91;489295;28;799;-66
2021/04/09 00:00:30;;;;;;;2.83;0.93;;;;;;;18.48;48.91;100787.03;489180;28;817;-67
2021/04/09 00:00:44;;;;;;;1.97;0.90;;;;;;;18.51;48.94;100785.81;487215;28;904;-65
2021/04/09 00:00:58;;;;;;;2.90;0.80;;;;;;;18.52;48.83;100783.94;487404;28;1008;-64
2021/04/09 00:01:13;;;;;;;4.03;0.80;;;;;;;18.52;48.97;100778.53;487376;28;973;-64
2021/04/09 00:01:27;;;;;;;4.90;0.90;;;;;;;18.53;48.39;100781.06;488956;28;1910;-66
2021/04/09 00:01:44;;;;;;;3.77;0.90;;;;;;;18.52;48.88;100784.78;489181;28;1294;-65
2021/04/09 00:01:59;;;;;;;2.30;0.95;;;;;;;18.51;48.91;100783.09;489259;28;937;-67
2021/04/09 00:02:14;;;;;;;2.58;1.00;;;;;;;18.50;48.54;100781.44;489202;28;834;-66
2021/04/09 00:02:28;;;;;;;2.63;0.93;;;;;;;18.49;48.47;100777.88;487597;28;941;-67
2021/04/09 00:02:43;;;;;;;1.93;0.87;;;;;;;18.48;48.67;100783.47;487361;28;1012;-67
2021/04/09 00:02:57;;;;;;;2.55;0.90;;;;;;;18.48;48.63;100781.63;487794;28;918;-67
2021/04/09 00:03:12;;;;;;;3.50;0.97;;;;;;;18.46;48.79;100782.84;489389;28;841;-67
2021/04/09 00:03:27;;;;;;;2.80;0.95;;;;;;;18.46;48.68;100777.41;489163;28;1312;-67
2021/04/09 00:03:42;;;;;;;3.00;1.00;;;;;;;18.45;48.82;100779.28;489309;28;750;-65
2021/04/09 00:04:00;;;;;;;3.00;1.00;;;;;;;18.44;49.29;100788.44;487860;28;862;-66
2021/04/09 00:04:14;;;;;;;2.25;0.93;;;;;;;18.43;48.79;100781.34;486755;28;19610;-65
2021/04/09 00:04:30;;;;;;;2.15;0.90;;;;;;;18.42;48.84;100779.66;487298;28;855;-65
2021/04/09 00:04:44;;;;;;;2.45;0.80;;;;;;;18.41;49.10;100783.38;488979;28;1028;-66
2021/04/09 00:04:58;;;;;;;4.20;0.87;;;;;;;18.40;49.19;100781.72;489097;28;980;-66
2021/04/09 00:05:16;;;;;;;4.45;1.00;;;;;;;18.39;48.88;100785.47;489180;28;1186;-66
2021/04/09 00:05:31;;;;;;;6.82;1.00;;;;;;;18.37;48.96;100778.56;489243;28;902;-66
2021/04/09 00:05:46;;;;;;;6.47;0.93;;;;;;;18.38;49.38;100781.09;489352;28;969;-66
2021/04/09 00:06:00;;;;;;;2.85;0.90;;;;;;;18.37;49.19;100778.56;489247;28;1106;-66
2021/04/09 00:06:15;;;;;;;2.57;1.00;;;;;;;18.37;49.31;100782.13;487832;28;917;-66
2021/04/09 00:06:29;;;;;;;2.58;0.98;;;;;;;18.36;49.50;100782.31;489226;28;868;-66
2021/04/09 00:06:44;;;;;;;3.15;0.90;;;;;;;18.36;49.26;100782.31;489317;28;981;-66
2021/04/09 00:06:58;;;;;;;3.30;0.88;;;;;;;18.36;49.74;100782.31;489078;28;1246;-66
2021/04/09 00:07:13;;;;;;;2.30;0.90;;;;;;;18.33;50.05;100779.97;489244;28;989;-66
2021/04/09 00:07:28;;;;;;;2.45;0.90;;;;;;;18.33;49.86;100788.94;488889;28;816;-66
2021/04/09 00:07:43;;;;;;;2.80;0.82;;;;;;;18.32;49.69;100786.41;489414;28;822;-66
2021/04/09 00:07:57;;;;;;;3.53;0.90;;;;;;;18.33;49.65;100785.38;489229;28;1048;-66
2021/04/09 00:08:12;;;;;;;3.30;0.88;;;;;;;18.32;50.27;100787.25;489276;28;822;-66
2021/04/09 00:08:26;;;;;;;2.33;0.87;;;;;;;18.29;50.02;100778.66;489186;28;1148;-66
2021/04/09 00:08:41;;;;;;;2.38;0.90;;;;;;;18.29;49.62;100784.91;489064;28;1223;-66
2021/04/09 00:08:55;;;;;;;2.50;0.90;;;;;;;18.29;50.25;100782.22;489277;28;818;-66
2021/04/09 00:09:11;;;;;;;2.38;0.82;;;;;;;18.27;49.71;100778.84;489440;28;1059;-66
2021/04/09 00:09:25;;;;;;;2.33;0.80;;;;;;;18.27;49.84;100786.97;487144;28;924;-66
2021/04/09 00:09:40;;;;;;;2.33;0.80;;;;;;;18.27;49.78;100780.72;489049;28;981;-65
2021/04/09 00:09:54;;;;;;;2.07;0.90;;;;;;;18.27;50.05;100776.13;489297;28;937;-66
2021/04/09 00:10:09;;;;;;;2.40;0.93;;;;;;;18.27;50.46;100788.84;489318;28;1009;-65
2021/04/09 00:10:25;;;;;;;2.33;0.88;;;;;;;18.27;49.85;100786.13;488860;28;1373;-66
2021/04/09 00:10:40;;;;;;;1.58;0.75;;;;;;;18.27;49.69;100778.00;488071;28;880;-66
2021/04/09 00:10:54;;;;;;;1.77;0.80;;;;;;;18.27;50.09;100780.72;487429;28;815;-66
2021/04/09 00:11:08;;;;;;;2.67;0.90;;;;;;;18.27;50.13;100783.41;487667;28;870;-66
2021/04/09 00:11:23;;;;;;;2.57;0.80;;;;;;;18.27;50.29;100780.72;489289;28;890;-66
2021/04/09 00:11:39;;;;;;;4.10;0.90;;;;;;;18.26;50.22;100779.03;489382;28;941;-66
2021/04/09 00:11:54;;;;;;;3.80;0.85;;;;;;;18.27;50.40;100778.84;489194;28;1135;-66
2021/04/09 00:12:09;;;;;;;2.17;0.90;;;;;;;18.27;50.36;100783.41;489233;28;1036;-66
2021/04/09 00:12:23;;;;;;;2.00;0.80;;;;;;;18.27;50.26;100780.72;489108;28;769;-65
2021/04/09 00:12:39;;;;;;;1.77;0.70;;;;;;;18.26;49.81;100779.03;489432;28;810;-65
2021/04/09 00:12:54;;;;;;;1.95;0.80;;;;;;;18.25;50.09;100786.31;489242;28;825;-65
2021/04/09 00:13:08;;;;;;;1.85;1.00;;;;;;;18.24;50.01;100773.78;489322;28;873;-66
2021/04/09 00:13:23;;;;;;;1.85;1.00;;;;;;;18.26;49.83;100782.59;489323;28;880;-66
2021/04/09 00:13:37;;;;;;;1.70;0.80;;;;;;;18.26;50.34;100787.16;489135;28;1163;-65
2021/04/09 00:13:52;;;;;;;1.60;0.73;;;;;;;18.24;50.41;100781.91;489322;28;1094;-65
2021/04/09 00:14:09;;;;;;;1.87;0.80;;;;;;;18.25;50.20;100786.31;489344;28;889;-65
2021/04/09 00:14:23;;;;;;;2.00;0.80;;;;;;;18.26;50.57;100779.03;489047;28;2320;-66
2021/04/09 00:14:38;;;;;;;1.57;0.80;;;;;;;18.25;50.12;100785.47;489268;28;809;-65
2021/04/09 00:14:52;;;;;;;2.30;0.88;;;;;;;18.25;49.87;100785.47;488896;28;929;-66
2021/04/09 00:15:09;;;;;;;2.42;0.80;;;;;;;18.23;50.34;100780.25;489259;28;878;-65
2021/04/09 00:15:24;;;;;;;2.60;0.90;;;;;;;18.24;50.48;100776.50;488999;28;1239;-65
2021/04/09 00:15:38;;;;;;;2.70;0.90;;;;;;;18.23;49.51;100779.41;489295;28;799;-65
2021/04/09 00:15:53;;;;;;;1.67;0.70;;;;;;;18.23;50.40;100773.97;489234;28;940;-65
2021/04/09 00:16:07;;;;;;;1.93;0.70;;;;;;;18.24;50.83;100778.38;489322;28;1028;-66
2021/04/09 00:16:22;;;;;;;1.85;0.70;;;;;;;18.23;50.81;100782.94;489231;28;989;-65
2021/04/09 00:16:36;;;;;;;1.83;0.80;;;;;;;18.23;50.62;100780.25;489257;28;806;-66
2021/04/09 00:16:51;;;;;;;2.10;0.90;;;;;;;18.21;50.27;100779.59;488964;28;1076;-65
2021/04/09 00:17:06;;;;;;;3.90;0.90;;;;;;;18.23;50.79;100782.09;488995;28;1052;-65
2021/04/09 00:17:21;;;;;;;3.70;0.95;;;;;;;18.22;50.40;100781.25;488972;28;1113;-65
2021/04/09 00:17:35;;;;;;;1.73;0.80;;;;;;;18.22;50.43;100778.56;489173;28;854;-65
2021/04/09 00:17:52;;;;;;;1.90;0.70;;;;;;;18.21;49.65;100773.31;489011;28;1013;-65
2021/04/09 00:18:06;;;;;;;1.70;0.70;;;;;;;18.20;50.65;100775.19;489124;28;960;-65
2021/04/09 00:18:21;;;;;;;1.47;0.70;;;;;;;18.21;50.27;100773.31;489111;28;869;-66
2021/04/09 00:18:35;;;;;;;1.10;0.60;;;;;;;18.20;48.55;100782.47;488976;28;881;-65
2021/04/09 00:18:49;;;;;;;0.90;0.70;;;;;;;18.20;50.25;100780.63;489040;28;1198;-65
2021/04/09 00:19:15;;;;;;;1.33;0.73;;;;;;;18.20;50.58;100774.34;489297;28;803;-65
2021/04/09 00:19:30;;;;;;;1.35;0.80;;;;;;;18.19;50.48;100776.22;486976;28;65968;-65
2021/04/09 00:19:44;;;;;;;0.88;0.60;;;;;;;18.20;50.15;100785.19;489309;28;964;-65
2021/04/09 00:19:59;;;;;;;1.53;0.70;;;;;;;18.18;50.13;100774.56;489100;28;1212;-65
2021/04/09 00:20:19;;;;;;;2.28;0.82;;;;;;;18.19;50.31;100776.22;489276;28;992;-65
2021/04/09 00:20:33;;;;;;;2.88;0.90;;;;;;;18.20;50.58;100774.34;486736;28;66108;-65
2021/04/09 00:20:48;;;;;;;3.30;0.90;;;;;;;18.19;49.71;100786.25;487289;28;872;-65
2021/04/09 00:21:02;;;;;;;2.13;0.80;;;;;;;18.19;50.21;100778.94;488031;28;977;-65
2021/04/09 00:21:16;;;;;;;1.17;0.80;;;;;;;18.19;50.09;100773.50;489274;28;905;-65
2021/04/09 00:21:31;;;;;;;1.40;0.80;;;;;;;18.19;50.81;100776.22;489277;28;1968;-65
2021/04/09 00:21:45;;;;;;;2.65;0.80;;;;;;;18.20;50.63;100777.91;489420;28;861;-65
2021/04/09 00:22:00;;;;;;;3.03;0.80;;;;;;;18.19;49.99;100770.81;489232;28;873;-65
2021/04/09 00:22:14;;;;;;;2.07;0.83;;;;;;;18.20;50.63;100772.47;488769;28;1139;-65
2021/04/09 00:22:28;;;;;;;1.93;0.90;;;;;;;18.20;50.66;100767.06;489244;28;795;-66
2021/04/09 00:22:44;;;;;;;2.70;0.90;;;;;;;18.20;50.04;100768.94;489179;28;1008;-66
2021/04/09 00:22:59;;;;;;;2.00;0.70;;;;;;;18.19;49.98;100770.81;489169;28;909;-66
2021/04/09 00:23:13;;;;;;;1.20;0.70;;;;;;;18.20;50.77;100772.47;489368;28;1058;-66
2021/04/09 00:23:27;;;;;;;1.50;0.80;;;;;;;18.20;50.48;100777.91;489299;28;812;-66
2021/04/09 00:23:42;;;;;;;1.90;0.90;;;;;;;18.19;50.50;100773.50;489183;28;814;-66
2021/04/09 00:23:56;;;;;;;2.03;0.97;;;;;;;18.19;49.66;100772.69;488888;28;1274;-66
2021/04/09 00:24:12;;;;;;;1.60;0.87;;;;;;;18.19;49.78;100772.69;489209;28;880;-66
2021/04/09 00:24:26;;;;;;;1.58;0.77;;;;;;;18.18;50.27;100771.84;488981;28;838;-66
2021/04/09 00:24:41;;;;;;;1.38;0.60;;;;;;;18.19;50.25;100770.00;489071;28;882;-66
2021/04/09 00:24:55;;;;;;;1.30;0.67;;;;;;;18.18;49.68;100771.03;488998;28;787;-65
2021/04/09 00:25:10;;;;;;;1.75;0.90;;;;;;;18.19;50.86;100764.56;489169;28;920;-66
2021/04/09 00:25:25;;;;;;;2.17;0.85;;;;;;;18.19;50.71;100768.09;489118;28;1053;-66
2021/04/09 00:25:39;;;;;;;2.07;0.70;;;;;;;18.20;50.42;100771.66;489082;28;1254;-65
2021/04/09 00:25:53;;;;;;;1.83;0.80;;;;;;;18.19;50.08;100770.00;489215;28;980;-65
2021/04/09 00:26:08;;;;;;;1.43;0.80;;;;;;;18.18;49.61;100776.44;489313;28;979;-65
2021/04/09 00:26:22;;;;;;;1.33;0.73;;;;;;;18.18;50.79;100769.16;489292;28;849;-65
2021/04/09 00:26:37;;;;;;;2.00;0.90;;;;;;;18.18;49.80;100766.44;489105;28;1041;-65
2021/04/09 00:26:51;;;;;;;2.63;0.90;;;;;;;18.19;49.78;100772.69;489007;28;902;-65
2021/04/09 00:27:06;;;;;;;2.87;0.80;;;;;;;18.19;50.75;100778.94;489163;28;789;-65
2021/04/09 00:27:20;;;;;;;2.60;0.85;;;;;;;18.19;49.66;100775.41;488965;28;1215;-65
2021/04/09 00:27:35;;;;;;;1.90;0.80;;;;;;;18.19;50.48;100772.69;489013;28;961;-65
2021/04/09 00:27:49;;;;;;;1.42;0.70;;;;;;;18.18;48.86;100773.72;489107;28;819;-65
2021/04/09 00:28:04;;;;;;;1.83;0.80;;;;;;;18.18;48.85;100776.44;489118;28;914;-65
2021/04/09 00:28:18;;;;;;;2.88;0.80;;;;;;;18.16;49.66;100773.91;489173;28;941;-65
2021/04/09 00:28:33;;;;;;;2.63;0.70;;;;;;;18.17;48.95;100781.00;489097;28;973;-65
2021/04/09 00:28:47;;;;;;;1.65;0.80;;;;;;;18.17;50.24;100767.47;489333;28;815;-66
2021/04/09 00:29:02;;;;;;;1.63;0.90;;;;;;;18.19;50.23;100775.41;488964;28;1155;-65
2021/04/09 00:29:17;;;;;;;2.00;0.90;;;;;;;18.19;50.64;100773.50;489255;28;862;-65
2021/04/09 00:29:31;;;;;;;2.50;1.00;;;;;;;18.18;50.22;100774.56;489184;28;905;-65
2021/04/09 00:29:46;;;;;;;2.27;0.93;;;;;;;18.19;50.27;100770.00;489008;28;791;-65
2021/04/09 00:30:00;;;;;;;2.22;0.88;;;;;;;18.17;50.86;100764.75;489157;28;1060;-65
2021/04/09 00:30:20;;;;;;;2.03;0.80;;;;;;;18.19;49.42;100770.81;489287;28;961;-65
2021/04/09 00:30:34;;;;;;;3.67;0.85;;;;;;;18.19;50.06;100773.50;486986;28;67930;-66
2021/04/09 00:30:48;;;;;;;3.20;0.90;;;;;;;18.18;49.53;100768.31;487358;28;1293;-65
2021/04/09 00:31:04;;;;;;;1.40;0.82;;;;;;;18.18;50.74;100785.41;487296;28;851;-65
2021/04/09 00:31:19;;;;;;;2.45;0.90;;;;;;;18.20;49.55;100771.66;487460;28;863;-65
2021/04/09 00:31:34;;;;;;;2.50;0.88;;;;;;;18.18;50.46;100771.84;487355;28;1056;-65
2021/04/09 00:31:49;;;;;;;1.48;0.60;;;;;;;18.18;50.24;100771.84;488823;28;1820;-65
2021/04/09 00:32:03;;;;;;;1.50;0.63;;;;;;;18.18;50.44;100768.31;489220;28;985;-65
2021/04/09 00:32:18;;;;;;;1.58;0.70;;;;;;;18.17;50.03;100769.34;489172;28;1282;-65
2021/04/09 00:32:32;;;;;;;2.57;0.90;;;;;;;18.17;49.72;100767.47;487775;28;980;-65
2021/04/09 00:32:47;;;;;;;2.85;0.90;;;;;;;18.13;50.26;100767.00;489157;28;1227;-66
2021/04/09 00:33:01;;;;;;;2.80;0.90;;;;;;;18.15;50.06;100770.38;489214;28;1045;-65
2021/04/09 00:33:15;;;;;;;2.87;0.90;;;;;;;18.15;50.00;100769.53;489238;28;922;-65
2021/04/09 00:33:30;;;;;;;4.85;1.00;;;;;;;18.14;49.93;100770.56;489176;28;838;-67
2021/04/09 00:33:44;;;;;;;4.72;1.02;;;;;;;18.14;50.33;100767.84;489236;28;1049;-66
2021/04/09 00:33:59;;;;;;;1.93;0.90;;;;;;;18.14;50.22;100767.84;489340;28;910;-66
2021/04/09 00:34:14;;;;;;;1.85;0.80;;;;;;;18.14;50.57;100774.09;488805;28;920;-66
2021/04/09 00:34:28;;;;;;;2.13;0.80;;;;;;;18.13;50.22;100767.00;489219;28;874;-65
2021/04/09 00:34:42;;;;;;;2.08;0.90;;;;;;;18.14;50.40;100765.97;489311;28;913;-65
2021/04/09 00:34:57;;;;;;;1.80;0.90;;;;;;;18.14;50.38;100771.38;489036;28;811;-65
2021/04/09 00:35:13;;;;;;;1.80;0.80;;;;;;;18.15;49.97;100766.81;489308;28;862;-65
2021/04/09 00:35:27;;;;;;;1.30;0.70;;;;;;;18.15;50.16;100766.81;489074;28;1805;-65
2021/04/09 00:35:43;;;;;;;1.50;0.80;;;;;;;18.14;49.95;100768.69;489188;28;866;-65
2021/04/09 00:35:58;;;;;;;2.40;0.90;;;;;;;18.12;49.77;100761.75;489006;28;877;-65
2021/04/09 00:36:12;;;;;;;2.03;0.80;;;;;;;18.12;49.96;100768.03;488911;28;1242;-65
2021/04/09 00:36:27;;;;;;;1.77;0.90;;;;;;;18.14;48.93;100760.56;489137;28;851;-65
2021/04/09 00:36:41;;;;;;;2.20;0.90;;;;;;;18.13;49.37;100766.16;489098;28;916;-66
2021/04/09 00:36:55;;;;;;;1.90;0.80;;;;;;;18.12;50.89;100768.03;488962;28;1238;-66
2021/04/09 00:37:10;;;;;;;1.73;0.80;;;;;;;18.13;50.26;100764.28;488843;28;851;-65
2021/04/09 00:37:24;;;;;;;1.90;0.90;;;;;;;18.13;48.99;100758.03;489066;28;823;-66
2021/04/09 00:37:38;;;;;;;1.80;0.90;;;;;;;18.12;49.24;100762.59;489303;28;949;-65
2021/04/09 00:37:53;;;;;;;2.25;0.80;;;;;;;18.11;50.60;100760.09;489132;28;1179;-66
2021/04/09 00:38:07;;;;;;;2.30;0.90;;;;;;;18.13;50.05;100761.59;489240;28;826;-66
2021/04/09 00:38:22;;;;;;;1.85;0.90;;;;;;;18.15;50.34;100761.41;489116;28;941;-65
2021/04/09 00:38:36;;;;;;;1.53;0.80;;;;;;;18.15;50.04;100759.53;489331;28;1220;-65
2021/04/09 00:38:51;;;;;;;1.47;0.80;;;;;;;18.14;50.59;100755.13;489383;28;901;-65
2021/04/09 00:39:07;;;;;;;1.67;0.82;;;;;;;18.16;50.44;100754.94;489168;28;868;-65
2021/04/09 00:39:21;;;;;;;2.35;0.93;;;;;;;18.17;50.03;100753.94;489323;28;869;-65
2021/04/09 00:39:35;;;;;;;2.87;0.97;;;;;;;18.17;50.03;100761.22;489153;28;1261;-65
2021/04/09 00:39:50;;;;;;;2.28;0.90;;;;;;;18.17;49.02;100755.78;489251;28;837;-65
2021/04/09 00:40:06;;;;;;;1.80;0.80;;;;;;;18.17;50.17;100755.78;489243;28;1000;-65
2021/04/09 00:40:21;;;;;;;2.28;0.85;;;;;;;18.17;50.51;100759.34;489241;28;842;-66
2021/04/09 00:40:36;;;;;;;1.73;0.80;;;;;;;18.18;50.05;100762.88;489319;28;1044;-66
2021/04/09 00:40:50;;;;;;;1.10;0.80;;;;;;;18.18;49.93;100760.19;487616;28;1298;-65
2021/04/09 00:41:05;;;;;;;2.13;0.88;;;;;;;18.18;50.70;100755.59;487359;28;889;-65
2021/04/09 00:41:19;;;;;;;2.40;0.87;;;;;;;18.18;50.59;100755.59;487486;28;1203;-65
2021/04/09 00:41:37;;;;;;;1.88;0.90;;;;;;;18.18;50.55;100752.91;489119;28;858;-65
2021/04/09 00:41:51;;;;;;;2.30;0.95;;;;;;;18.18;51.09;100761.03;489272;28;909;-66
2021/04/09 00:42:06;;;;;;;2.28;0.80;;;;;;;18.19;51.06;100754.53;489344;28;962;-65
2021/04/09 00:42:22;;;;;;;2.70;0.80;;;;;;;18.19;51.03;100754.53;489152;28;989;-65
2021/04/09 00:42:37;;;;;;;3.25;0.80;;;;;;;18.19;50.67;100751.84;489205;28;1005;-65
2021/04/09 00:42:51;;;;;;;1.98;0.70;;;;;;;18.19;50.32;100756.44;489312;28;1638;-65
2021/04/09 00:43:07;;;;;;;2.55;0.77;;;;;;;18.18;50.60;100757.47;489166;28;1219;-65
2021/04/09 00:43:22;;;;;;;2.70;0.80;;;;;;;18.20;50.36;100758.09;489171;28;908;-65
2021/04/09 00:43:37;;;;;;;1.47;0.70;;;;;;;18.18;50.01;100758.31;489292;28;810;-66
2021/04/09 00:43:51;;;;;;;2.22;0.77;;;;;;;18.19;50.05;100754.53;489276;28;1303;-66
2021/04/09 00:44:07;;;;;;;2.22;0.80;;;;;;;18.17;50.59;100753.94;489165;28;810;-65
2021/04/09 00:44:21;;;;;;;1.73;0.70;;;;;;;18.18;50.52;100752.06;488818;28;1085;-66
2021/04/09 00:44:36;;;;;;;1.97;0.70;;;;;;;18.17;50.28;100753.94;488958;28;1021;-65
2021/04/09 00:44:57;;;;;;;1.70;0.70;;;;;;;18.18;49.42;100762.88;489079;28;1203;-65
2021/04/09 00:45:14;;;;;;;1.63;0.80;;;;;;;18.15;50.25;100756.81;486886;28;66142;-64
2021/04/09 00:45:28;;;;;;;1.58;0.80;;;;;;;18.17;49.52;100755.78;489139;28;914;-64
2021/04/09 00:45:42;;;;;;;1.97;0.80;;;;;;;18.16;49.41;100754.94;489163;28;969;-65
2021/04/09 00:45:57;;;;;;;2.17;0.70;;;;;;;18.17;49.27;100751.22;489126;28;985;-65
2021/04/09 00:46:12;;;;;;;2.63;0.70;;;;;;;18.18;50.22;100752.06;489294;28;949;-65
2021/04/09 00:46:27;;;;;;;2.60;0.63;;;;;;;18.18;50.62;100746.63;488963;28;1203;-64
2021/04/09 00:46:41;;;;;;;2.10;0.60;;;;;;;18.18;50.21;100749.34;489334;28;952;-65
2021/04/09 00:46:55;;;;;;;2.33;0.60;;;;;;;18.18;50.55;100747.47;489280;28;992;-65
2021/04/09 00:47:10;;;;;;;1.53;0.70;;;;;;;18.18;50.48;100747.47;489388;28;794;-65
2021/04/09 00:47:25;;;;;;;1.20;0.70;;;;;;;18.18;50.59;100744.78;489206;28;1036;-65
2021/04/09 00:47:41;;;;;;;1.67;0.70;;;;;;;18.18;49.91;100744.78;489322;28;898;-65
2021/04/09 00:47:55;;;;;;;2.63;0.80;;;;;;;18.19;50.17;100745.59;489182;28;909;-64
2021/04/09 00:48:10;;;;;;;2.45;0.80;;;;;;;18.17;49.63;100742.25;489064;28;989;-65
2021/04/09 00:48:25;;;;;;;1.75;0.80;;;;;;;18.16;49.71;100735.97;489184;28;920;-65
2021/04/09 00:48:40;;;;;;;2.77;0.80;;;;;;;18.18;49.75;100750.19;489274;28;826;-65
2021/04/09 00:48:54;;;;;;;2.92;0.80;;;;;;;18.19;50.11;100745.59;490896;28;893;-64
2021/04/09 00:49:10;;;;;;;1.98;0.80;;;;;;;18.18;50.44;100741.22;491013;28;985;-64
2021/04/09 00:49:24;;;;;;;1.95;0.90;;;;;;;18.19;49.69;100741.00;491039;28;908;-64
2021/04/09 00:49:40;;;;;;;1.97;0.90;;;;;;;18.16;49.84;100735.97;491056;28;1244;-64
2021/04/09 00:49:54;;;;;;;1.83;0.88;;;;;;;18.19;49.97;100737.47;490545;28;1107;-64
2021/04/09 00:50:11;;;;;;;2.00;0.80;;;;;;;18.19;51.00;100742.91;491064;28;894;-65
2021/04/09 00:50:25;;;;;;;1.58;0.70;;;;;;;18.20;50.78;100737.25;491017;28;1311;-65
2021/04/09 00:50:40;;;;;;;1.50;0.70;;;;;;;18.20;50.27;100745.38;491089;28;885;-64
2021/04/09 00:50:54;;;;;;;1.88;0.70;;;;;;;18.19;49.63;100743.72;487543;28;962;-64
2021/04/09 00:51:09;;;;;;;1.70;0.70;;;;;;;18.18;49.70;100743.94;487332;28;842;-64
2021/04/09 00:51:23;;;;;;;1.70;0.70;;;;;;;18.18;49.20;100739.34;487806;28;993;-64
2021/04/09 00:51:37;;;;;;;1.52;0.77;;;;;;;18.18;49.67;100742.06;489222;28;1151;-64
2021/04/09 00:51:52;;;;;;;1.80;0.80;;;;;;;18.19;50.15;100742.91;488778;28;980;-65
2021/04/09 00:52:07;;;;;;;2.08;0.80;;;;;;;18.20;50.54;100741.84;489250;28;893;-65
2021/04/09 00:52:22;;;;;;;1.48;0.70;;;;;;;18.17;49.25;100732.25;489169;28;870;-64
2021/04/09 00:52:39;;;;;;;1.77;0.60;;;;;;;18.18;49.71;100739.34;489229;28;898;-64
2021/04/09 00:52:55;;;;;;;2.30;0.80;;;;;;;18.19;49.96;100737.47;489280;28;929;-64
2021/04/09 00:53:13;;;;;;;1.58;0.70;;;;;;;18.19;50.07;100740.19;489163;28;1015;-64
2021/04/09 00:53:27;;;;;;;1.50;0.65;;;;;;;18.18;50.16;100735.81;486597;28;19560;-66
2021/04/09 00:53:43;;;;;;;1.37;0.70;;;;;;;18.19;49.88;100734.78;487374;28;874;-64
2021/04/09 00:53:58;;;;;;;1.73;0.73;;;;;;;18.18;50.47;100741.22;488631;28;861;-64
2021/04/09 00:54:13;;;;;;;2.10;0.90;;;;;;;18.18;50.54;100742.06;489189;28;1032;-64
2021/04/09 00:54:28;;;;;;;1.90;0.88;;;;;;;18.19;49.62;100732.88;489177;28;945;-64
2021/04/09 00:54:42;;;;;;;2.03;0.82;;;;;;;18.18;49.40;100739.34;489291;28;842;-64
2021/04/09 00:54:58;;;;;;;2.10;0.80;;;;;;;18.19;49.90;100737.47;489127;28;1215;-64
2021/04/09 00:55:14;;;;;;;2.65;0.75;;;;;;;18.21;49.73;100738.94;489230;28;936;-64
2021/04/09 00:55:29;;;;;;;2.00;0.80;;;;;;;18.20;48.99;100739.13;489236;28;849;-64
2021/04/09 00:55:46;;;;;;;1.30;0.70;;;;;;;18.20;49.99;100737.25;489292;28;1047;-64
2021/04/09 00:56:03;;;;;;;1.70;0.70;;;;;;;18.21;49.82;100736.22;489292;28;913;-64
2021/04/09 00:56:19;;;;;;;2.03;0.70;;;;;;;18.23;50.07;100733.34;489187;28;879;-64
2021/04/09 00:56:37;;;;;;;2.38;0.73;;;;;;;18.23;49.63;100730.63;488862;28;1032;-64
2021/04/09 00:56:52;;;;;;;2.70;0.80;;;;;;;18.23;50.33;100733.34;487118;28;1078;-64
2021/04/09 00:57:07;;;;;;;2.17;0.80;;;;;;;18.22;50.15;100735.22;487419;28;1017;-64
2021/04/09 00:57:21;;;;;;;1.77;0.80;;;;;;;18.23;49.96;100736.06;489100;28;1005;-64
2021/04/09 00:57:36;;;;;;;1.83;0.80;;;;;;;18.24;49.96;100735.03;489181;28;889;-64
2021/04/09 00:57:51;;;;;;;1.73;0.77;;;;;;;18.23;50.06;100728.75;489211;28;913;-64
2021/04/09 00:58:06;;;;;;;1.83;0.70;;;;;;;18.23;50.33;100728.75;488978;28;964;-64
2021/04/09 00:58:21;;;;;;;1.80;0.70;;;;;;;18.24;50.34;100732.31;488908;28;1427;-64
2021/04/09 00:58:35;;;;;;;2.23;0.70;;;;;;;18.23;50.30;100728.75;489234;28;878;-64
2021/04/09 00:58:50;;;;;;;2.50;0.77;;;;;;;18.23;50.52;100731.47;489197;28;1000;-64
2021/04/09 00:59:05;;;;;;;2.35;0.95;;;;;;;18.24;50.75;100729.59;489245;28;933;-64
2021/04/09 00:59:20;;;;;;;2.08;0.80;;;;;;;18.23;50.49;100731.47;488896;28;838;-64
2021/04/09 00:59:35;;;;;;;2.10;0.70;;;;;;;18.23;49.54;100731.47;489171;28;870;-64
2021/04/09 00:59:50;;;;;;;1.90;0.80;;;;;;;18.22;50.26;100727.06;489283;28;928;-64
2021/04/09 01:00:08;;;;;;;2.78;0.90;;;;;;;18.22;49.81;100729.78;489137;28;1140;-64
2021/04/09 01:00:23;;;;;;;2.95;0.90;;;;;;;18.22;50.03;100729.78;488484;28;18721;-64
2021/04/09 01:00:38;;;;;;;1.20;0.75;;;;;;;18.22;50.13;100721.66;489223;28;1032;-64
2021/04/09 01:00:52;;;;;;;1.42;0.80;;;;;;;18.22;50.45;100728.94;488008;28;997;-64
2021/04/09 01:01:07;;;;;;;1.80;0.80;;;;;;;18.21;50.19;100728.09;487354;28;1024;-64
2021/04/09 01:01:22;;;;;;;2.17;0.80;;;;;;;18.22;49.70;100728.94;488897;28;901;-64
2021/04/09 01:01:36;;;;;;;2.33;0.80;;;;;;;18.22;49.60;100726.25;489264;28;892;-64
2021/04/09 01:01:51;;;;;;;1.80;0.70;;;;;;;18.21;49.60;100721.84;489028;28;1227;-64
2021/04/09 01:02:06;;;;;;;1.17;0.70;;;;;;;18.21;50.53;100729.97;489303;28;1095;-64
2021/04/09 01:02:21;;;;;;;1.25;0.80;;;;;;;18.21;50.00;100722.69;489162;28;842;-64
2021/04/09 01:02:37;;;;;;;1.95;0.80;;;;;;;18.20;49.33;100722.88;489262;28;885;-64
2021/04/09 01:02:53;;;;;;;1.85;0.70;;;;;;;18.19;50.33;100727.44;489183;28;1008;-64
2021/04/09 01:03:07;;;;;;;1.88;0.70;;;;;;;18.21;50.42;100724.56;489247;28;1051;-64
2021/04/09 01:03:22;;;;;;;1.60;0.70;;;;;;;18.22;49.78;100721.66;489322;28;948;-64
2021/04/09 01:03:38;;;;;;;1.30;0.60;;;;;;;18.22;49.88;100728.94;489095;28;1292;-64
2021/04/09 01:03:54;;;;;;;1.75;0.70;;;;;;;18.21;50.61;100728.09;489185;28;902;-64
2021/04/09 01:04:09;;;;;;;1.67;0.80;;;;;;;18.21;49.32;100725.41;489299;28;829;-64
2021/04/09 01:04:23;;;;;;;1.25;0.70;;;;;;;18.20;49.99;100731.00;489144;28;827;-64
2021/04/09 01:04:38;;;;;;;1.53;0.70;;;;;;;18.20;49.45;100725.59;489195;28;909;-64
2021/04/09 01:04:52;;;;;;;2.10;0.70;;;;;;;18.20;49.50;100728.28;489056;28;798;-64
2021/04/09 01:05:13;;;;;;;2.22;0.70;;;;;;;18.20;50.14;100729.13;489096;28;1219;-64
2021/04/09 01:05:28;;;;;;;2.58;0.70;;;;;;;18.20;49.85;100728.28;486984;28;67039;-64
2021/04/09 01:05:42;;;;;;;2.72;0.70;;;;;;;18.21;49.87;100727.25;489322;28;984;-64
2021/04/09 01:05:57;;;;;;;2.08;0.75;;;;;;;18.20;49.92;100728.28;489227;28;827;-63
2021/04/09 01:06:11;;;;;;;2.57;0.80;;;;;;;18.18;50.25;100723.09;489198;28;977;-64
2021/04/09 01:06:26;;;;;;;2.47;0.77;;;;;;;18.21;50.03;100724.56;489096;28;977;-64
2021/04/09 01:06:40;;;;;;;1.17;0.60;;;;;;;18.22;50.12;100728.94;488783;28;842;-64
2021/04/09 01:06:55;;;;;;;1.40;0.70;;;;;;;18.21;50.34;100722.69;489160;28;1243;-64
2021/04/09 01:07:09;;;;;;;1.73;0.70;;;;;;;18.21;50.42;100729.97;489132;28;829;-64
2021/04/09 01:07:24;;;;;;;2.42;0.65;;;;;;;18.21;50.07;100725.41;489263;28;1029;-64
2021/04/09 01:07:39;;;;;;;2.60;0.77;;;;;;;18.21;49.41;100728.09;489234;28;862;-64
2021/04/09 01:07:54;;;;;;;2.80;0.80;;;;;;;18.22;49.86;100724.38;489158;28;839;-64
2021/04/09 01:08:09;;;;;;;2.60;0.80;;;;;;;18.22;49.53;100723.53;489303;28;829;-64
2021/04/09 01:08:23;;;;;;;1.83;0.73;;;;;;;18.21;50.32;100725.41;489101;28;897;-64
2021/04/09 01:08:38;;;;;;;1.77;0.70;;;;;;;18.22;49.71;100723.53;488936;28;1202;-64
2021/04/09 01:08:52;;;;;;;1.75;0.70;;;;;;;18.21;49.96;100725.41;489298;28;918;-64
2021/04/09 01:09:06;;;;;;;1.67;0.70;;;;;;;18.22;50.25;100731.66;489247;28;838;-63
2021/04/09 01:09:21;;;;;;;1.70;0.70;;;;;;;18.20;49.88;100714.75;489300;28;979;-64
2021/04/09 01:09:36;;;;;;;3.65;0.80;;;;;;;18.22;50.00;100721.66;489110;28;992;-64
2021/04/09 01:09:50;;;;;;;3.67;0.82;;;;;;;18.22;50.50;100720.81;489313;28;1209;-63
2021/04/09 01:10:06;;;;;;;1.73;0.70;;;;;;;18.21;49.50;100717.28;489290;28;815;-64
2021/04/09 01:10:20;;;;;;;1.40;0.60;;;;;;;18.22;49.35;100731.66;489009;28;1231;-64
2021/04/09 01:10:35;;;;;;;1.67;0.70;;;;;;;18.23;49.85;100722.50;489183;28;885;-65
2021/04/09 01:10:49;;;;;;;1.47;0.70;;;;;;;18.22;49.45;100727.06;488608;28;889;-65
2021/04/09 01:11:05;;;;;;;1.20;0.60;;;;;;;18.22;50.55;100720.81;487731;28;898;-64
2021/04/09 01:11:19;;;;;;;1.50;0.80;;;;;;;18.23;50.20;100722.50;489626;28;1009;-64
2021/04/09 01:11:33;;;;;;;1.53;0.77;;;;;;;18.22;49.80;100721.66;489661;28;858;-65